createdAt,value
2023-10-20T00:00:18.618Z,0.000000
2023-10-20T00:05:18.307Z,0.000000
2023-10-20T00:10:18.403Z,0.000000
2023-10-20T00:15:18.173Z,0.000000
2023-10-20T00:20:16.329Z,0.000000
2023-10-20T00:25:16.309Z,0.000000
2023-10-20T00:30:16.419Z,0.000000
2023-10-20T00:35:16.549Z,0.000000
2023-10-20T00:40:16.308Z,0.000000
2023-10-20T00:45:16.435Z,0.000000
2023-10-20T00:50:16.388Z,0.000000
2023-10-20T00:55:16.682Z,0.000000
2023-10-20T01:00:16.473Z,0.000000
2023-10-20T01:05:16.643Z,0.000000
2023-10-20T01:10:16.565Z,0.000000
2023-10-20T01:15:16.893Z,0.000000
2023-10-20T01:20:16.504Z,0.000000
2023-10-20T01:25:16.471Z,0.000000
2023-10-20T01:30:16.759Z,0.000000
2023-10-20T01:35:16.602Z,0.000000
2023-10-20T01:40:16.711Z,0.000000
2023-10-20T01:45:17.423Z,0.000000
2023-10-20T01:50:17.222Z,0.000000
2023-10-20T01:55:16.768Z,0.000000
2023-10-20T02:00:39.523Z,0.000000
2023-10-20T02:05:16.613Z,0.000000
2023-10-20T02:10:16.559Z,0.000000
2023-10-20T02:15:16.754Z,0.000000
2023-10-20T02:20:16.677Z,0.000000
2023-10-20T02:25:16.560Z,0.000000
2023-10-20T02:30:17.047Z,0.000000
2023-10-20T02:35:16.788Z,0.000000
2023-10-20T02:40:16.616Z,0.000000
2023-10-20T02:45:16.623Z,0.000000
2023-10-20T02:50:16.839Z,0.000000
2023-10-20T02:55:16.666Z,0.000000
2023-10-20T03:00:16.714Z,0.000000
2023-10-20T03:05:16.754Z,0.000000
2023-10-20T03:10:16.932Z,0.000000
2023-10-20T03:15:16.730Z,0.000000
2023-10-20T03:20:16.796Z,0.000000
2023-10-20T03:25:16.721Z,0.000000
2023-10-20T03:30:16.770Z,0.000000
2023-10-20T03:35:16.761Z,0.000000
2023-10-20T03:40:17.086Z,0.000000
2023-10-20T03:45:18.195Z,0.000000
2023-10-20T03:50:17.068Z,0.000000
2023-10-20T03:55:16.826Z,0.000000
2023-10-20T04:00:19.077Z,0.000000
2023-10-20T04:05:18.088Z,0.000000
2023-10-20T04:10:17.840Z,0.000000
2023-10-20T04:15:17.871Z,0.000000
2023-10-20T04:20:17.967Z,0.000000
2023-10-20T04:25:17.731Z,0.000000
2023-10-20T04:30:17.930Z,0.000000
2023-10-20T04:35:18.036Z,0.000000
2023-10-20T04:40:17.862Z,0.000000
2023-10-20T04:45:18.164Z,0.000000
2023-10-20T04:50:17.937Z,0.000000
2023-10-20T04:55:18.049Z,0.000000
2023-10-20T05:00:18.251Z,0.000000
2023-10-20T05:05:17.967Z,0.000000
2023-10-20T05:10:17.853Z,0.000000
2023-10-20T05:15:17.943Z,0.000000
2023-10-20T05:20:18.035Z,0.000000
2023-10-20T05:25:17.845Z,0.000000
2023-10-20T05:30:18.224Z,0.000000
2023-10-20T05:35:17.894Z,0.000000
2023-10-20T05:40:18.028Z,0.000000
2023-10-20T05:45:19.301Z,0.000000
2023-10-20T05:50:18.140Z,0.000000
2023-10-20T05:55:18.214Z,0.000000
2023-10-20T06:00:18.031Z,0.000000
2023-10-20T06:05:18.167Z,0.000000
2023-10-20T06:10:18.371Z,0.000000
2023-10-20T06:15:18.098Z,0.000000
2023-10-20T06:20:18.210Z,0.000000
2023-10-20T06:25:18.137Z,0.000000
2023-10-20T06:30:18.091Z,0.000000
2023-10-20T06:35:18.127Z,0.000000
2023-10-20T06:40:18.310Z,0.000000
2023-10-20T06:45:18.117Z,0.000000
2023-10-20T06:50:16.480Z,0.000000
2023-10-20T06:55:44.964Z,0.000000
2023-10-20T07:00:18.384Z,0.000000
2023-10-20T07:05:18.110Z,0.000000
2023-10-20T07:10:18.223Z,0.000000
2023-10-20T07:15:18.176Z,0.000000
2023-10-20T07:20:18.161Z,0.000000
2023-10-20T07:25:18.664Z,0.000000
2023-10-20T07:30:18.364Z,0.000000
2023-10-20T07:35:18.274Z,0.000000
2023-10-20T07:40:20.038Z,0.000000
2023-10-20T07:45:19.613Z,0.000000
2023-10-20T07:50:18.204Z,0.000000
2023-10-20T07:55:18.331Z,0.000000
2023-10-20T08:00:16.315Z,0.000000
2023-10-20T08:05:16.688Z,0.000000
2023-10-20T08:10:16.664Z,0.000000
2023-10-20T08:15:16.221Z,0.000000
2023-10-20T08:20:16.602Z,0.000000
2023-10-20T08:25:16.372Z,0.000000
2023-10-20T08:30:16.409Z,0.000000
2023-10-20T08:35:16.396Z,0.000000
2023-10-20T08:40:16.904Z,0.000000
2023-10-20T08:45:16.439Z,0.000000
2023-10-20T08:50:17.330Z,0.000000
2023-10-20T08:55:16.539Z,0.000000
2023-10-20T09:00:16.523Z,0.000000
2023-10-20T09:05:16.368Z,0.000000
2023-10-20T09:10:16.522Z,0.000000
2023-10-20T09:15:16.693Z,0.000000
2023-10-20T09:20:16.704Z,0.000000
2023-10-20T09:25:16.766Z,0.000000
2023-10-20T09:30:16.558Z,0.000000
2023-10-20T09:35:16.542Z,0.000000
2023-10-20T09:40:16.606Z,0.000000
2023-10-20T09:45:17.488Z,0.000000
2023-10-20T09:50:16.701Z,0.000000
2023-10-20T09:55:16.953Z,0.000000
2023-10-20T10:00:16.743Z,0.000000
2023-10-20T10:05:16.613Z,0.000000
2023-10-20T10:10:16.635Z,0.000000
2023-10-20T10:15:16.588Z,0.000000
2023-10-20T10:20:16.671Z,0.000000
2023-10-20T10:25:17.020Z,0.000000
2023-10-20T10:30:17.081Z,0.000000
2023-10-20T10:35:16.943Z,0.000000
2023-10-20T10:40:16.676Z,0.000000
2023-10-20T10:45:16.624Z,0.000000
2023-10-20T10:50:16.678Z,0.000000
2023-10-20T10:55:16.789Z,0.000000
2023-10-20T11:00:16.668Z,0.000000
2023-10-20T11:05:16.712Z,0.000000
2023-10-20T11:10:17.392Z,0.000000
2023-10-20T11:15:16.702Z,0.000000
2023-10-20T11:20:16.817Z,0.000000
2023-10-20T11:25:16.827Z,0.000000
2023-10-20T11:30:17.134Z,0.000000
2023-10-20T11:35:16.889Z,0.000000
2023-10-20T11:40:16.875Z,0.000000
2023-10-20T11:45:17.694Z,0.000000
2023-10-20T11:50:16.861Z,0.000000
2023-10-20T11:55:16.829Z,0.000000
2023-10-20T12:00:16.793Z,0.000000
2023-10-20T12:05:16.941Z,0.000000
2023-10-20T12:10:17.058Z,0.000000
2023-10-20T12:15:16.838Z,0.000000
2023-10-20T12:20:17.218Z,0.000000
2023-10-20T12:25:17.607Z,0.000000
2023-10-20T12:30:17.028Z,0.000000
2023-10-20T12:35:16.997Z,0.000000
2023-10-20T12:40:16.944Z,0.000000
2023-10-20T12:45:17.037Z,0.000000
2023-10-20T12:50:16.922Z,0.000000
2023-10-20T12:55:17.258Z,0.000000
2023-10-20T13:00:17.075Z,0.000000
2023-10-20T13:05:16.917Z,0.000000
2023-10-20T13:10:17.042Z,0.000000
2023-10-20T13:15:16.940Z,0.000000
2023-10-20T13:20:17.059Z,0.000000
2023-10-20T13:25:17.229Z,0.000000
2023-10-20T13:30:17.196Z,0.000000
2023-10-20T13:35:16.944Z,0.000000
2023-10-20T13:40:17.612Z,0.000000
2023-10-20T13:45:17.680Z,0.000000
2023-10-20T13:50:17.070Z,0.500000
2023-10-20T13:55:17.159Z,0.600000
2023-10-20T14:00:17.108Z,0.600000
2023-10-20T14:05:17.271Z,0.600000
2023-10-20T14:10:17.217Z,0.500000
2023-10-20T14:15:17.076Z,0.600000
2023-10-20T14:20:17.145Z,0.100000
2023-10-20T14:25:17.216Z,0.300000
2023-10-20T14:30:17.128Z,0.600000
2023-10-20T14:35:17.081Z,0.700000
2023-10-20T14:40:17.405Z,0.700000
2023-10-20T14:45:17.446Z,0.600000
2023-10-20T14:50:17.251Z,0.700000
2023-10-20T14:55:17.398Z,0.700000
2023-10-20T15:00:17.154Z,0.700000
2023-10-20T15:05:17.397Z,0.800000
2023-10-20T15:10:17.511Z,0.800000
2023-10-20T15:15:17.335Z,0.800000
2023-10-20T15:20:17.170Z,0.700000
2023-10-20T15:25:17.261Z,0.800000
2023-10-20T15:30:17.266Z,0.900000
2023-10-20T15:35:17.640Z,0.700000
2023-10-20T15:40:19.238Z,0.700000
2023-10-20T15:45:19.864Z,0.600000
2023-10-20T15:50:17.301Z,0.500000
2023-10-20T15:55:17.595Z,0.500000
2023-10-20T16:00:17.394Z,0.500000
2023-10-20T16:05:17.324Z,0.300000
2023-10-20T16:10:17.828Z,0.300000
2023-10-20T16:15:17.491Z,0.400000
2023-10-20T16:20:17.479Z,0.300000
2023-10-20T16:25:17.475Z,0.600000
2023-10-20T16:30:17.384Z,0.600000
2023-10-20T16:35:17.313Z,0.700000
2023-10-20T16:40:17.548Z,0.800000
2023-10-20T16:45:17.404Z,0.700000
2023-10-20T16:50:17.503Z,0.700000
2023-10-20T16:55:17.725Z,0.600000
2023-10-20T17:00:17.485Z,0.700000
2023-10-20T17:05:17.611Z,0.700000
2023-10-20T17:10:17.531Z,0.700000
2023-10-20T17:15:17.444Z,0.700000
2023-10-20T17:20:17.556Z,0.600000
2023-10-20T17:25:18.028Z,0.500000
2023-10-20T17:30:17.660Z,0.100000
2023-10-20T17:35:17.551Z,0.000000
2023-10-20T17:40:17.674Z,0.000000
2023-10-20T17:45:18.367Z,0.000000
2023-10-20T17:50:17.591Z,0.000000
2023-10-20T17:55:17.672Z,0.000000
2023-10-20T18:00:18.993Z,0.500000
2023-10-20T18:05:18.119Z,0.700000
2023-10-20T18:10:17.830Z,0.700000
2023-10-20T18:15:17.740Z,0.600000
2023-10-20T18:20:17.533Z,0.600000
2023-10-20T18:25:17.648Z,0.600000
2023-10-20T18:30:17.972Z,0.600000
2023-10-20T18:35:17.865Z,0.500000
2023-10-20T18:40:18.500Z,0.500000
2023-10-20T18:45:17.686Z,0.500000
2023-10-20T18:50:17.670Z,0.500000
2023-10-20T18:55:17.792Z,0.200000
2023-10-20T19:00:17.721Z,0.000000
2023-10-20T19:05:17.826Z,0.000000
2023-10-20T19:10:17.793Z,0.000000
2023-10-20T19:15:18.101Z,0.000000
2023-10-20T19:20:17.741Z,0.000000
2023-10-20T19:25:17.870Z,0.000000
2023-10-20T19:30:17.787Z,0.000000
2023-10-20T19:35:17.731Z,0.000000
2023-10-20T19:40:17.882Z,0.000000
2023-10-20T19:45:19.378Z,0.000000
2023-10-20T19:50:17.872Z,0.000000
2023-10-20T19:55:18.218Z,0.000000
2023-10-20T20:00:17.922Z,0.000000
2023-10-20T20:05:17.847Z,0.000000
2023-10-20T20:10:17.907Z,0.000000
2023-10-20T20:15:18.666Z,0.000000
2023-10-20T20:20:18.029Z,0.000000
2023-10-20T20:25:18.073Z,0.000000
2023-10-20T20:30:18.090Z,0.000000
2023-10-20T20:35:17.865Z,0.000000
2023-10-20T20:40:17.988Z,0.000000
2023-10-20T20:45:17.886Z,0.000000
2023-10-20T20:50:30.001Z,0.000000
2023-10-20T20:55:18.249Z,0.000000
2023-10-20T21:00:18.011Z,0.000000
2023-10-20T21:05:17.908Z,0.000000
2023-10-20T21:10:18.439Z,0.000000
2023-10-20T21:15:18.107Z,0.000000
2023-10-20T21:20:18.310Z,0.000000
2023-10-20T21:25:18.017Z,0.000000
2023-10-20T21:30:18.290Z,0.000000
2023-10-20T21:35:18.145Z,0.000000
2023-10-20T21:40:18.095Z,0.000000
2023-10-20T21:45:18.956Z,0.000000
2023-10-20T21:50:17.988Z,0.000000
2023-10-20T21:55:18.295Z,0.000000
2023-10-20T22:00:18.126Z,0.000000
2023-10-20T22:05:18.349Z,0.000000
2023-10-20T22:10:18.293Z,0.000000
2023-10-20T22:15:18.131Z,0.000000
2023-10-20T22:20:18.072Z,0.000000
2023-10-20T22:25:18.677Z,0.000000
2023-10-20T22:30:18.582Z,0.000000
2023-10-20T22:35:18.105Z,0.000000
2023-10-20T22:40:18.578Z,0.000000
2023-10-20T22:45:18.122Z,0.000000
2023-10-20T22:50:18.178Z,0.000000
2023-10-20T22:55:18.198Z,0.000000
2023-10-20T23:00:18.554Z,0.000000
2023-10-20T23:05:18.214Z,0.000000
2023-10-20T23:10:18.257Z,0.000000
2023-10-20T23:15:18.593Z,0.000000
2023-10-20T23:20:16.213Z,0.000000
2023-10-20T23:25:18.362Z,0.000000
2023-10-20T23:30:18.337Z,0.000000
2023-10-20T23:35:16.328Z,0.000000
2023-10-20T23:40:16.762Z,0.000000
2023-10-20T23:45:17.122Z,0.000000
2023-10-20T23:50:16.449Z,0.000000
2023-10-20T23:55:16.472Z,0.000000
